KMLI

Quad City International Airport

Moline, Illinois, USA
METAR KMLI 190652Z AUTO 23007KT 10SM CLR M01/M07 A2994 RMK AO2 SLP144 T10061067
Observed Flight Rules
Jan-19 @ 06:52 UTC (37 minutes ago) Visual Flight Rules
Wind Visibility Clouds
230° at 7 knots 10 miles
  • Clear skies
Temperatures Readings
Current -1°C / 30°F
Dewpoint -7°C / 19°F
Humidity 64%
Altimeter 29.94" Hg
Pressure 1014.4 hPa
Elevation 184
METAR KMLI 190652Z AUTO 23007KT 10SM CLR M01/M07 A2994 RMK AO2 SLP144 T10061067
Observed Flight Rules
Jan-19 @ 06:52 UTC
(37 minutes ago)
VFR
Wind Visibility
230° at 7 knots 10 miles
Clouds
  • Clear skies
Temperature Dewpoint
-1°C / 30°F -7°C / 19°F
Humidity Altimeter Pressure
64% 29.94" Hg 1014.4 hPa